Time;durP1;ratioP1;P1;durP2;ratioP2;P2;SDS_P1;SDS_P2;PMS_P1;PMS_P2;Temp;Humidity;BMP_temperature;BMP_pressure;BME280_temperature;BME280_humidity;BME280_pressure;Samples;Min_cycle;Max_cycle;Signal;HPM_P1;HPM_P2
2024/01/01 00:00:02;;;;;;;19.90;12.20;;;;;;;0.68;72.59;99376.88;107172;1258;71463;-39
2024/01/01 00:02:38;;;;;;;22.00;13.70;;;;;;;0.70;72.42;99366.91;107135;1257;60590;-39
2024/01/01 00:05:07;;;;;;;19.60;13.00;;;;;;;0.72;72.50;99358.83;107215;1257;60378;-38
2024/01/01 00:07:35;;;;;;;22.10;14.20;;;;;;;0.71;72.34;99346.52;107204;1257;73790;-39
2024/01/01 00:10:03;;;;;;;22.60;13.30;;;;;;;0.63;72.45;99349.50;107218;1257;67553;-38
2024/01/01 00:12:32;;;;;;;17.90;12.20;;;;;;;0.58;72.73;99356.36;107196;1259;71601;-39
2024/01/01 00:15:00;;;;;;;20.30;12.30;;;;;;;0.63;73.01;99356.22;107142;1259;60912;-39
2024/01/01 00:17:27;;;;;;;16.90;10.90;;;;;;;0.70;72.95;99366.86;107240;1257;60021;-39
2024/01/01 00:19:55;;;;;;;19.80;11.60;;;;;;;0.74;73.64;99364.77;107168;1257;73844;-39
2024/01/01 00:22:23;;;;;;;17.80;12.00;;;;;;;0.78;73.89;99357.44;107186;1257;66465;-39
2024/01/01 00:24:50;;;;;;;21.40;13.70;;;;;;;0.79;73.44;99344.93;107197;1258;71427;-39
2024/01/01 00:27:17;;;;;;;24.60;13.40;;;;;;;0.72;73.60;99344.15;107175;1259;60495;-39
2024/01/01 00:29:45;;;;;;;23.80;13.40;;;;;;;0.67;73.86;99345.48;107180;1257;61107;-39
2024/01/01 00:32:12;;;;;;;22.50;13.20;;;;;;;0.69;74.29;99349.55;107159;1258;73839;-39
2024/01/01 00:34:40;;;;;;;20.80;12.70;;;;;;;0.78;74.28;99346.65;107168;1258;67526;-39
2024/01/01 00:37:08;;;;;;;19.90;13.20;;;;;;;0.88;74.52;99341.98;107172;1258;72647;-38
2024/01/01 00:39:35;;;;;;;21.70;13.00;;;;;;;0.88;74.48;99327.84;107150;1262;60569;-38
2024/01/01 00:42:04;;;;;;;20.00;13.10;;;;;;;1.00;74.48;99333.44;107145;1258;60020;-39
2024/01/01 00:44:32;;;;;;;22.10;14.00;;;;;;;1.04;74.48;99343.29;107436;1255;73856;-38
2024/01/01 00:46:59;;;;;;;21.50;13.50;;;;;;;1.08;74.59;99343.36;107362;1254;66622;-39
2024/01/01 00:49:27;;;;;;;16.70;11.60;;;;;;;1.12;74.73;99335.38;107353;1254;72468;-39
2024/01/01 00:51:55;;;;;;;15.50;11.40;;;;;;;1.22;74.63;99329.19;107344;1257;60857;-39
2024/01/01 00:54:26;;;;;;;17.10;10.90;;;;;;;1.34;74.34;99327.34;107374;1257;60331;-38
2024/01/01 00:56:55;;;;;;;16.90;11.90;;;;;;;1.39;74.37;99323.84;107363;1255;73825;-39
2024/01/01 00:59:22;;;;;;;19.20;12.30;;;;;;;1.42;74.64;99323.70;107358;1256;66324;-39
2024/01/01 01:01:52;;;;;;;21.40;13.10;;;;;;;1.46;74.53;99319.50;107345;1257;71299;-39
2024/01/01 01:04:20;;;;;;;21.50;12.50;;;;;;;1.45;74.34;99311.26;107315;1257;60503;-39
2024/01/01 01:06:47;;;;;;;16.50;11.40;;;;;;;1.40;74.32;99312.02;107348;1255;60440;-39
2024/01/01 01:09:15;;;;;;;19.60;11.40;;;;;;;1.42;74.41;99304.26;107390;1257;73828;-39
2024/01/01 01:11:43;;;;;;;19.50;11.50;;;;;;;1.48;74.42;99297.88;107388;1256;66277;-39
2024/01/01 01:14:10;;;;;;;19.30;11.90;;;;;;;1.46;74.57;99298.41;107349;1257;72675;-39
2024/01/01 01:16:38;;;;;;;17.20;11.50;;;;;;;1.43;74.90;99293.39;107325;1257;60328;-38
2024/01/01 01:19:06;;;;;;;18.90;12.10;;;;;;;1.44;75.01;99294.83;107350;1257;60389;-39
2024/01/01 01:21:33;;;;;;;17.20;11.50;;;;;;;1.46;75.09;99295.23;107361;1257;73790;-39
2024/01/01 01:24:01;;;;;;;18.90;11.40;;;;;;;1.49;74.84;99293.42;107368;1257;66472;-39
2024/01/01 01:26:28;;;;;;;18.80;11.50;;;;;;;1.52;74.71;99290.84;107236;1257;72719;-39
2024/01/01 01:28:59;;;;;;;17.70;11.30;;;;;;;1.50;74.85;99286.35;107334;1256;60418;-39
2024/01/01 01:31:26;;;;;;;20.00;12.60;;;;;;;1.45;75.14;99290.20;107356;1256;60318;-39
2024/01/01 01:33:55;;;;;;;19.70;12.30;;;;;;;1.40;75.38;99298.58;107352;1255;72627;-39
2024/01/01 01:36:22;;;;;;;18.30;11.80;;;;;;;1.39;75.63;99301.33;107315;1257;66608;-39
2024/01/01 01:38:50;;;;;;;19.20;12.50;;;;;;;1.45;75.74;99295.02;107351;1257;72809;-38
2024/01/01 01:41:17;;;;;;;19.10;11.60;;;;;;;1.51;75.59;99287.86;107328;1257;60343;-39
2024/01/01 01:43:45;;;;;;;17.70;11.70;;;;;;;1.47;75.79;99283.25;106877;1256;503026;-38
2024/01/01 01:47:47;;;;;;;21.70;12.00;;;;;;;1.39;76.34;99267.08;104100;1292;600068;-39
2024/01/01 01:50:15;;;;;;;18.30;11.90;;;;;;;1.33;76.48;99254.46;106464;1272;60843;-39
2024/01/01 01:52:43;;;;;;;17.60;11.70;;;;;;;1.33;76.61;99243.88;106465;1266;60077;-40
2024/01/01 01:55:11;;;;;;;17.30;11.60;;;;;;;1.33;76.56;99236.94;106493;1267;72349;-39
2024/01/01 01:57:40;;;;;;;19.80;13.00;;;;;;;1.29;77.03;99224.52;106486;1266;66656;-39
2024/01/01 02:00:09;;;;;;;16.60;12.40;;;;;;;1.24;77.48;99228.10;106529;1266;72515;-38
2024/01/01 02:02:39;;;;;;;19.10;11.40;;;;;;;1.23;78.06;99228.11;106607;1264;59648;-39
2024/01/01 02:05:07;;;;;;;17.20;11.00;;;;;;;1.36;78.09;99222.35;106753;1263;59298;-39
2024/01/01 02:07:35;;;;;;;17.50;12.10;;;;;;;1.49;78.01;99225.46;106858;1263;72235;-39
2024/01/01 02:10:04;;;;;;;22.60;11.90;;;;;;;1.52;78.02;99225.92;106759;1264;68004;-39
2024/01/01 02:12:32;;;;;;;19.20;11.90;;;;;;;1.55;78.33;99226.42;106066;1267;1003726;-39
2024/01/01 02:14:59;;;;;;;20.80;12.90;;;;;;;1.59;78.01;99224.33;104372;1264;1003289;-39
2024/01/01 02:17:27;;;;;;;16.90;11.40;;;;;;;1.62;78.06;99218.77;106727;1266;60228;-39
2024/01/01 02:19:54;;;;;;;21.40;12.70;;;;;;;1.68;77.69;99211.48;106716;1267;72740;-38
2024/01/01 02:22:37;;;;;;;21.30;12.80;;;;;;;1.69;77.56;99209.59;106626;1266;66318;-39
2024/01/01 02:25:06;;;;;;;18.10;12.50;;;;;;;1.58;78.03;99195.36;106760;1266;72804;-39
2024/01/01 02:27:34;;;;;;;22.40;13.50;;;;;;;1.62;78.30;99192.73;106636;1267;59628;-39
2024/01/01 02:30:01;;;;;;;18.70;12.00;;;;;;;1.70;78.18;99194.39;106731;1267;59640;-38
2024/01/01 02:32:29;;;;;;;19.20;12.40;;;;;;;1.78;78.00;99193.52;106743;1267;73027;-39
2024/01/01 02:34:56;;;;;;;20.00;12.30;;;;;;;1.85;78.01;99191.93;106762;1266;67888;-39
2024/01/01 02:37:24;;;;;;;20.10;13.10;;;;;;;1.91;78.30;99182.90;106768;1267;72479;-39
2024/01/01 02:39:51;;;;;;;20.00;13.60;;;;;;;1.93;77.90;99179.77;106733;1264;59697;-39
2024/01/01 02:42:19;;;;;;;22.00;13.70;;;;;;;1.92;77.92;99180.20;106766;1266;59606;-39
2024/01/01 02:44:46;;;;;;;23.00;13.10;;;;;;;1.94;77.74;99176.63;106746;1271;72558;-38
2024/01/01 02:47:14;;;;;;;21.90;13.00;;;;;;;1.99;77.38;99171.58;106775;1266;66933;-39
2024/01/01 02:49:41;;;;;;;21.40;12.90;;;;;;;1.96;77.53;99167.11;106768;1265;72455;-38
2024/01/01 02:52:09;;;;;;;20.50;13.70;;;;;;;1.90;77.67;99163.30;106772;1266;59641;-39
2024/01/01 02:54:36;;;;;;;20.50;13.50;;;;;;;1.83;77.83;99154.36;106732;1266;60064;-39
2024/01/01 02:57:04;;;;;;;19.90;12.50;;;;;;;1.78;78.07;99150.26;106722;1266;73084;-38
2024/01/01 02:59:33;;;;;;;23.90;12.70;;;;;;;1.84;78.04;99145.66;106751;1266;66956;-39
2024/01/01 03:02:01;;;;;;;21.80;13.00;;;;;;;1.85;78.32;99142.23;106728;1266;72508;-39
2024/01/01 03:04:30;;;;;;;21.20;14.20;;;;;;;1.83;78.45;99139.12;106680;1272;59644;-38
2024/01/01 03:06:58;;;;;;;16.80;10.60;;;;;;;1.82;78.66;99130.38;106863;1263;59221;-39
2024/01/01 03:09:25;;;;;;;26.30;13.30;;;;;;;1.81;78.60;99131.36;106859;1263;72103;-39
2024/01/01 03:11:53;;;;;;;21.70;13.40;;;;;;;1.84;78.60;99130.63;106868;1268;67729;-39
2024/01/01 03:14:20;;;;;;;22.50;13.20;;;;;;;1.90;78.74;99130.05;106853;1263;71416;-39
2024/01/01 03:16:48;;;;;;;17.90;12.90;;;;;;;1.89;79.06;99131.69;106851;1263;59654;-38
2024/01/01 03:19:15;;;;;;;20.10;12.70;;;;;;;1.86;79.03;99127.37;106892;1263;60467;-39
2024/01/01 03:21:43;;;;;;;22.00;12.80;;;;;;;1.93;79.19;99138.53;106858;1262;73146;-39
2024/01/01 03:24:10;;;;;;;19.20;12.00;;;;;;;2.01;78.99;99134.95;106869;1263;66773;-39
2024/01/01 03:26:38;;;;;;;20.40;12.50;;;;;;;2.09;78.54;99129.16;106872;1263;72696;-38
2024/01/01 03:29:05;;;;;;;24.00;14.40;;;;;;;2.10;78.66;99122.82;106839;1263;59787;-39
2024/01/01 03:31:33;;;;;;;22.20;14.60;;;;;;;2.08;78.62;99121.10;106857;1263;59990;-39
2024/01/01 03:34:00;;;;;;;21.50;14.00;;;;;;;2.06;78.48;99116.36;106833;1263;73084;-39
2024/01/01 03:36:28;;;;;;;23.70;13.90;;;;;;;2.07;78.25;99112.74;106872;1263;68003;-39
2024/01/01 03:38:55;;;;;;;22.80;14.70;;;;;;;2.14;78.20;99106.73;106844;1263;72727;-39
2024/01/01 03:41:26;;;;;;;24.70;15.50;;;;;;;2.15;78.12;99097.57;106841;1263;60023;-39
2024/01/01 03:43:53;;;;;;;25.50;15.90;;;;;;;2.11;78.14;99091.14;106882;1263;59506;-39
2024/01/01 03:46:21;;;;;;;23.90;16.30;;;;;;;2.08;78.18;99085.25;106852;1262;73034;-39
2024/01/01 03:48:48;;;;;;;24.10;15.00;;;;;;;2.03;78.22;99083.64;106710;1263;66643;-39
2024/01/01 03:51:16;;;;;;;25.20;14.70;;;;;;;1.97;78.08;99070.14;106747;1262;72750;-39
2024/01/01 03:53:44;;;;;;;26.10;15.70;;;;;;;2.03;78.23;99082.69;106865;1263;60316;-39
2024/01/01 03:56:11;;;;;;;24.30;15.60;;;;;;;2.00;78.36;99078.40;106839;1262;59596;-39
2024/01/01 03:58:39;;;;;;;29.40;17.20;;;;;;;1.95;78.40;99073.95;106862;1263;73502;-39
2024/01/01 04:01:12;;;;;;;22.60;14.40;;;;;;;1.86;78.38;99072.46;107045;1258;66310;-39
2024/01/01 04:03:39;;;;;;;23.30;15.30;;;;;;;1.89;78.65;99071.44;107073;1259;72517;-39
2024/01/01 04:06:07;;;;;;;26.10;15.10;;;;;;;1.90;78.80;99068.19;107037;1260;59701;-39
2024/01/01 04:08:35;;;;;;;24.80;15.60;;;;;;;1.88;79.09;99064.05;106969;1259;60122;-39
2024/01/01 04:11:02;;;;;;;26.70;16.50;;;;;;;1.83;79.07;99060.91;107028;1259;73101;-39
2024/01/01 04:13:30;;;;;;;25.10;14.00;;;;;;;1.80;79.07;99057.88;106943;1261;67612;-38
2024/01/01 04:15:58;;;;;;;23.40;14.60;;;;;;;1.84;79.09;99057.35;107054;1260;72668;-38
2024/01/01 04:18:25;;;;;;;26.80;14.90;;;;;;;1.85;79.22;99054.88;107036;1259;59710;-39
2024/01/01 04:20:53;;;;;;;23.70;14.80;;;;;;;1.84;79.35;99052.17;107053;1259;59496;-39
2024/01/01 04:23:20;;;;;;;24.70;14.60;;;;;;;1.84;79.69;99049.34;107077;1260;72239;-39
2024/01/01 04:25:48;;;;;;;21.20;13.90;;;;;;;1.86;79.57;99041.90;107019;1263;66613;-39
2024/01/01 04:28:15;;;;;;;25.00;14.50;;;;;;;1.97;79.29;99042.81;107046;1260;72746;-39
2024/01/01 04:30:43;;;;;;;24.30;14.40;;;;;;;2.02;79.24;99039.44;107029;1260;59714;-39
2024/01/01 04:33:10;;;;;;;22.60;14.10;;;;;;;2.01;79.26;99034.59;107060;1260;60363;-39
2024/01/01 04:35:40;;;;;;;22.50;14.50;;;;;;;2.00;79.17;99027.98;107060;1260;73045;-39
2024/01/01 04:38:07;;;;;;;20.90;13.20;;;;;;;2.00;79.13;99018.41;107106;1260;67527;-39
2024/01/01 04:40:36;;;;;;;20.80;12.80;;;;;;;2.03;79.14;99013.23;107057;1260;72455;-39
2024/01/01 04:43:04;;;;;;;21.00;12.80;;;;;;;2.07;79.14;99007.23;107029;1259;59627;-39
2024/01/01 04:45:35;;;;;;;27.30;13.80;;;;;;;2.06;78.92;99003.42;107052;1260;59250;-39
2024/01/01 04:48:04;;;;;;;21.20;12.90;;;;;;;2.03;79.14;98997.63;107081;1257;73022;-39
2024/01/01 04:50:32;;;;;;;13.60;9.20;;;;;;;2.04;79.15;99004.01;107097;1262;66903;-39
2024/01/01 04:52:59;;;;;;;17.80;11.80;;;;;;;2.08;78.83;99003.94;107051;1260;71440;-39
2024/01/01 04:55:27;;;;;;;19.20;11.70;;;;;;;2.12;78.81;99006.15;107058;1257;59692;-39
2024/01/01 04:57:54;;;;;;;20.10;12.20;;;;;;;2.13;78.85;99007.37;107074;1257;59986;-39
2024/01/01 05:00:22;;;;;;;17.50;12.10;;;;;;;2.17;78.84;99004.20;107032;1263;73081;-39
2024/01/01 05:02:49;;;;;;;19.10;11.70;;;;;;;2.22;79.05;99002.92;107030;1257;66287;-39
2024/01/01 05:05:17;;;;;;;16.80;11.20;;;;;;;2.33;78.66;99003.33;107039;1257;72499;-39
2024/01/01 05:07:44;;;;;;;17.40;10.60;;;;;;;2.47;78.48;99000.48;107006;1257;59913;-39
2024/01/01 05:10:12;;;;;;;18.00;11.10;;;;;;;2.55;78.36;99004.29;106271;1259;1003791;-39
2024/01/01 05:12:41;;;;;;;19.00;12.10;;;;;;;2.57;77.82;99002.45;107047;1257;71844;-39
2024/01/01 05:15:08;;;;;;;18.80;11.50;;;;;;;2.57;77.65;99002.84;107047;1258;67911;-39
2024/01/01 05:17:36;;;;;;;18.00;11.10;;;;;;;2.55;77.56;99004.95;106893;1257;71206;-39
2024/01/01 05:20:04;;;;;;;16.70;10.50;;;;;;;2.53;77.53;98999.66;107062;1257;59598;-39
2024/01/01 05:22:32;;;;;;;18.40;10.10;;;;;;;2.59;77.26;99001.95;107109;1257;60230;-39
2024/01/01 05:25:00;;;;;;;16.00;10.30;;;;;;;2.60;77.40;98999.76;107048;1257;71820;-39
2024/01/01 05:27:27;;;;;;;18.30;10.40;;;;;;;2.60;77.39;98997.57;107062;1257;67717;-39
2024/01/01 05:29:54;;;;;;;14.20;9.90;;;;;;;2.59;77.25;98991.01;107046;1258;71761;-39
2024/01/01 05:32:22;;;;;;;17.00;9.50;;;;;;;2.56;77.25;98987.20;107049;1262;59840;-39
2024/01/01 05:34:50;;;;;;;16.30;9.40;;;;;;;2.59;77.04;98992.94;107051;1262;59253;-39
2024/01/01 05:37:18;;;;;;;14.70;10.10;;;;;;;2.66;77.13;98985.77;107052;1257;73091;-39
2024/01/01 05:39:45;;;;;;;16.80;10.10;;;;;;;2.66;77.02;98986.34;107056;1257;66330;-39
2024/01/01 05:42:13;;;;;;;15.90;9.20;;;;;;;2.63;76.94;98981.69;107055;1260;72680;-39
2024/01/01 05:44:41;;;;;;;16.40;10.10;;;;;;;2.59;76.85;98982.22;105562;1262;1003828;-39
2024/01/01 05:47:08;;;;;;;14.60;8.90;;;;;;;2.56;76.82;98980.17;107048;1260;59608;-39
2024/01/01 05:49:36;;;;;;;15.60;9.00;;;;;;;2.57;76.72;98975.33;107057;1260;73031;-39
2024/01/01 05:52:04;;;;;;;13.10;8.90;;;;;;;2.57;76.98;98980.44;107049;1262;67574;-39
2024/01/01 05:54:31;;;;;;;15.30;9.90;;;;;;;2.54;77.24;98977.70;107085;1260;71482;-39
2024/01/01 05:56:59;;;;;;;15.60;10.00;;;;;;;2.51;77.30;98971.15;107071;1258;60392;-39
2024/01/01 05:59:26;;;;;;;15.10;9.30;;;;;;;2.47;77.09;98971.38;107027;1260;60402;-39
2024/01/01 06:01:54;;;;;;;15.80;9.20;;;;;;;2.51;77.19;98970.55;107038;1259;73897;-39
2024/01/01 06:04:22;;;;;;;15.10;8.40;;;;;;;2.56;77.22;98970.09;107042;1260;67640;-39
2024/01/01 06:06:49;;;;;;;18.00;10.10;;;;;;;2.55;77.17;98960.64;107065;1260;70480;-39
2024/01/01 06:09:17;;;;;;;18.00;9.80;;;;;;;2.51;77.43;98957.98;107029;1260;60488;-39
2024/01/01 06:11:46;;;;;;;14.80;9.10;;;;;;;2.49;77.48;98957.89;107062;1260;60345;-39
2024/01/01 06:14:16;;;;;;;15.90;9.00;;;;;;;2.56;77.57;98959.15;107023;1261;72541;-39
2024/01/01 06:16:44;;;;;;;17.00;9.20;;;;;;;2.63;77.47;98954.54;107032;1260;66329;-39
2024/01/01 06:19:12;;;;;;;15.20;9.00;;;;;;;2.58;77.46;98941.05;107053;1260;72739;-44
2024/01/01 06:21:40;;;;;;;15.70;9.40;;;;;;;2.60;77.52;98950.46;107022;1260;60582;-39
2024/01/01 06:24:08;;;;;;;16.60;8.90;;;;;;;2.58;77.73;98947.80;106929;1260;60341;-39
2024/01/01 06:26:35;;;;;;;13.80;8.60;;;;;;;2.59;77.67;98944.00;107032;1260;72529;-39
2024/01/01 06:29:04;;;;;;;14.80;9.20;;;;;;;2.69;77.51;98941.63;107050;1260;66908;-40
2024/01/01 06:31:32;;;;;;;15.60;8.60;;;;;;;2.72;77.48;98948.80;107090;1260;71391;-39
2024/01/01 06:34:01;;;;;;;14.10;8.80;;;;;;;2.73;77.70;98953.73;107039;1260;60367;-39
2024/01/01 06:36:29;;;;;;;16.60;9.50;;;;;;;2.74;77.66;98948.64;107084;1263;60313;-39
2024/01/01 06:38:56;;;;;;;18.90;9.60;;;;;;;2.73;77.45;98936.93;107038;1261;72646;-39
2024/01/01 06:41:24;;;;;;;13.10;8.10;;;;;;;2.78;77.26;98928.27;107007;1261;67642;-39
2024/01/01 06:43:52;;;;;;;13.00;9.00;;;;;;;2.82;77.21;98927.08;107037;1260;70098;-40
2024/01/01 06:46:19;;;;;;;16.10;9.80;;;;;;;2.81;77.29;98923.90;106997;1263;60312;-39
2024/01/01 06:48:47;;;;;;;16.60;9.30;;;;;;;2.80;77.53;98923.61;106996;1262;60453;-41
2024/01/01 06:51:14;;;;;;;16.40;8.90;;;;;;;2.81;77.51;98916.85;107023;1257;72548;-38
2024/01/01 06:53:42;;;;;;;15.10;8.90;;;;;;;2.85;77.45;98913.19;107036;1262;66297;-38
2024/01/01 06:56:09;;;;;;;14.10;9.70;;;;;;;2.92;77.12;98916.17;107039;1260;71799;-38
2024/01/01 06:58:41;;;;;;;16.00;9.60;;;;;;;2.95;77.29;98920.88;107047;1257;60037;-37
2024/01/01 07:01:09;;;;;;;14.10;10.10;;;;;;;2.96;77.29;98921.54;107030;1260;60312;-38
2024/01/01 07:03:38;;;;;;;14.80;9.90;;;;;;;2.96;77.04;98920.54;107044;1262;73879;-38
2024/01/01 07:06:06;;;;;;;14.90;8.50;;;;;;;2.99;77.40;98920.30;107063;1258;65503;-38
2024/01/01 07:08:33;;;;;;;16.70;9.50;;;;;;;3.08;77.11;98917.52;107062;1261;71862;-38
2024/01/01 07:11:01;;;;;;;15.10;10.10;;;;;;;3.17;76.54;98912.90;107018;1261;60350;-38
2024/01/01 07:13:28;;;;;;;17.00;10.10;;;;;;;3.18;76.76;98906.38;107037;1260;60059;-39
2024/01/01 07:15:58;;;;;;;17.40;10.90;;;;;;;3.20;76.79;98904.91;107057;1262;73858;-39
2024/01/01 07:18:25;;;;;;;17.10;10.70;;;;;;;3.21;76.74;98902.45;107054;1262;67997;-39
2024/01/01 07:20:53;;;;;;;15.90;10.20;;;;;;;3.23;76.60;98897.63;107075;1260;73225;-39
2024/01/01 07:23:20;;;;;;;15.40;9.50;;;;;;;3.28;76.51;98898.36;107036;1260;60906;-39
2024/01/01 07:25:49;;;;;;;17.10;10.70;;;;;;;3.34;76.35;98897.66;107052;1260;60522;-39
2024/01/01 07:28:17;;;;;;;17.20;10.90;;;;;;;3.34;76.25;98891.77;107056;1257;73983;-39
2024/01/01 07:30:45;;;;;;;16.90;11.10;;;;;;;3.31;76.37;98893.11;107070;1260;67543;-39
2024/01/01 07:33:12;;;;;;;18.60;10.80;;;;;;;3.27;76.44;98891.49;107050;1263;72510;-39
2024/01/01 07:35:40;;;;;;;16.70;10.80;;;;;;;3.25;76.79;98889.95;107000;1257;60268;-39
2024/01/01 07:38:08;;;;;;;19.10;10.70;;;;;;;3.32;76.62;98889.77;107017;1262;60325;-39
2024/01/01 07:40:36;;;;;;;17.90;10.70;;;;;;;3.37;76.61;98887.32;107046;1262;73792;-38
2024/01/01 07:43:04;;;;;;;17.60;11.00;;;;;;;3.39;76.70;98883.55;107037;1262;66667;-38
2024/01/01 07:45:32;;;;;;;17.10;11.20;;;;;;;3.41;76.71;98881.96;107054;1260;71467;-38
2024/01/01 07:48:00;;;;;;;19.60;11.90;;;;;;;3.44;76.66;98885.04;107059;1261;59586;-38
2024/01/01 07:50:27;;;;;;;17.40;10.80;;;;;;;3.47;76.56;98873.23;107074;1260;59360;-38
2024/01/01 07:52:55;;;;;;;17.60;10.40;;;;;;;3.56;76.22;98866.98;107016;1259;73777;-38
2024/01/01 07:55:23;;;;;;;18.70;11.60;;;;;;;3.63;76.24;98868.66;107029;1261;66317;-38
2024/01/01 07:57:50;;;;;;;16.80;10.50;;;;;;;3.68;76.16;98868.52;107010;1263;71418;-38
2024/01/01 08:00:19;;;;;;;16.20;11.30;;;;;;;3.72;76.26;98873.71;107034;1259;60533;-39
2024/01/01 08:02:46;;;;;;;19.40;12.20;;;;;;;3.76;76.05;98867.70;107146;1260;60210;-39
2024/01/01 08:05:15;;;;;;;18.80;11.30;;;;;;;3.78;75.87;98861.69;107076;1264;73843;-39
2024/01/01 08:07:47;;;;;;;16.80;11.00;;;;;;;3.82;75.77;98855.35;107030;1261;66482;-39
2024/01/01 08:10:16;;;;;;;18.30;10.80;;;;;;;3.91;75.39;98853.38;107049;1260;72741;-39
2024/01/01 08:12:43;;;;;;;16.20;11.60;;;;;;;3.93;75.32;98849.64;107026;1260;60974;-39
2024/01/01 08:15:11;;;;;;;17.20;11.70;;;;;;;3.97;75.69;98850.65;107059;1264;60402;-39
2024/01/01 08:17:38;;;;;;;17.80;11.60;;;;;;;4.03;75.78;98851.97;107013;1258;73843;-39
2024/01/01 08:20:06;;;;;;;17.90;11.30;;;;;;;4.11;75.61;98854.77;107082;1263;66573;-40
2024/01/01 08:22:34;;;;;;;16.90;11.40;;;;;;;4.18;75.23;98852.91;107095;1265;71400;-39
2024/01/01 08:25:01;;;;;;;18.50;10.90;;;;;;;4.25;75.09;98849.02;107042;1261;60012;-39
2024/01/01 08:27:29;;;;;;;16.30;11.00;;;;;;;4.38;74.63;98839.27;107082;1261;61465;-39
2024/01/01 08:29:56;;;;;;;17.80;11.20;;;;;;;4.49;74.07;98831.30;107049;1260;73565;-39
2024/01/01 08:32:24;;;;;;;17.60;11.40;;;;;;;4.54;73.83;98830.02;107045;1263;67579;-39
2024/01/01 08:34:52;;;;;;;19.10;12.10;;;;;;;4.58;73.67;98833.29;107057;1263;72673;-39
2024/01/01 08:37:20;;;;;;;17.80;11.40;;;;;;;4.58;73.31;98825.55;107061;1261;60467;-39
2024/01/01 08:39:47;;;;;;;17.90;11.90;;;;;;;4.60;73.08;98820.53;107031;1261;59628;-39
2024/01/01 08:42:15;;;;;;;19.90;12.20;;;;;;;4.60;73.04;98819.92;107051;1263;73856;-39
2024/01/01 08:44:42;;;;;;;17.50;12.00;;;;;;;4.62;73.10;98820.45;107053;1263;66636;-40
2024/01/01 08:47:10;;;;;;;17.10;10.60;;;;;;;4.67;72.74;98824.78;107041;1261;71896;-39
2024/01/01 08:49:37;;;;;;;15.70;11.10;;;;;;;4.76;72.71;98822.22;107309;1260;60511;-39
2024/01/01 08:52:05;;;;;;;17.00;12.00;;;;;;;4.80;72.50;98819.73;106596;1258;1003758;-39
2024/01/01 08:54:33;;;;;;;19.30;11.80;;;;;;;4.77;72.28;98810.59;107237;1257;74300;-39
2024/01/01 08:57:00;;;;;;;21.30;13.20;;;;;;;4.74;72.22;98806.29;107269;1258;66596;-40
2024/01/01 08:59:28;;;;;;;18.60;13.00;;;;;;;4.70;72.22;98808.21;107314;1257;71688;-40
2024/01/01 09:01:55;;;;;;;21.00;13.90;;;;;;;4.67;72.28;98805.17;107319;1257;60524;-40
2024/01/01 09:04:23;;;;;;;18.80;12.70;;;;;;;4.66;72.59;98808.91;105061;1257;1003084;-40
2024/01/01 09:06:50;;;;;;;18.80;12.90;;;;;;;4.65;72.38;98806.50;107236;1258;74001;-40
2024/01/01 09:09:18;;;;;;;19.90;12.60;;;;;;;4.69;72.46;98801.58;107321;1256;66592;-39
2024/01/01 09:11:47;;;;;;;19.90;12.50;;;;;;;4.73;72.31;98794.14;107287;1257;72494;-40
2024/01/01 09:14:15;;;;;;;21.10;13.40;;;;;;;4.72;72.18;98784.96;107249;1255;60414;-39
2024/01/01 09:16:43;;;;;;;21.00;13.30;;;;;;;4.68;72.37;98773.39;107315;1259;60368;-39
2024/01/01 09:19:10;;;;;;;21.50;14.30;;;;;;;4.69;72.54;98771.28;107239;1257;73778;-39
2024/01/01 09:21:38;;;;;;;21.10;14.70;;;;;;;4.67;72.37;98775.77;107336;1260;67572;-39
2024/01/01 09:24:09;;;;;;;20.30;13.90;;;;;;;4.62;72.53;98768.52;107245;1257;72737;-39
2024/01/01 09:26:37;;;;;;;19.50;13.10;;;;;;;4.61;72.75;98757.89;107237;1257;60260;-39
2024/01/01 09:29:05;;;;;;;19.40;13.50;;;;;;;4.67;72.69;98747.05;107257;1261;60411;-39
2024/01/01 09:31:33;;;;;;;19.40;13.90;;;;;;;4.76;72.56;98742.98;107272;1257;73791;-39
2024/01/01 09:34:06;;;;;;;20.30;14.20;;;;;;;4.79;72.56;98739.77;107314;1255;66767;-40
2024/01/01 09:36:34;;;;;;;22.20;15.40;;;;;;;4.78;72.33;98748.02;107318;1257;71833;-40
2024/01/01 09:39:16;;;;;;;18.70;13.50;;;;;;;4.79;72.72;98758.25;107256;1259;60418;-39
2024/01/01 09:41:43;;;;;;;22.40;14.40;;;;;;;4.83;72.71;98762.53;107344;1260;59248;-39
2024/01/01 09:44:11;;;;;;;21.40;14.50;;;;;;;4.82;72.69;98758.18;107313;1257;73847;-39
2024/01/01 09:46:39;;;;;;;21.80;14.90;;;;;;;4.78;72.59;98748.64;107256;1260;66300;-39
2024/01/01 09:49:07;;;;;;;24.20;14.40;;;;;;;4.84;72.43;98749.41;107277;1256;71410;-39
2024/01/01 09:51:38;;;;;;;19.10;14.20;;;;;;;4.85;72.35;98745.08;107215;1263;60530;-39
2024/01/01 09:54:07;;;;;;;21.30;14.30;;;;;;;4.86;72.53;98744.31;107255;1257;59574;-39
2024/01/01 09:56:35;;;;;;;20.70;15.30;;;;;;;4.85;72.65;98746.84;107297;1261;74158;-39
2024/01/01 09:59:03;;;;;;;22.00;15.40;;;;;;;4.85;72.86;98744.48;107297;1256;66302;-40
2024/01/01 10:01:33;;;;;;;26.20;15.50;;;;;;;4.86;72.79;98739.83;107300;1257;72715;-39
2024/01/01 10:04:07;;;;;;;25.10;16.60;;;;;;;4.85;72.88;98732.17;107259;1256;60406;-39
2024/01/01 10:06:36;;;;;;;25.40;15.40;;;;;;;4.88;72.88;98724.46;107285;1260;60197;-39
2024/01/01 10:09:08;;;;;;;22.90;15.60;;;;;;;4.96;72.60;98714.64;107260;1256;73886;-39
2024/01/01 10:11:40;;;;;;;23.50;16.10;;;;;;;5.00;72.80;98714.54;107328;1259;67529;-39
2024/01/01 10:14:08;;;;;;;22.40;15.10;;;;;;;5.00;72.66;98712.30;107236;1260;72654;-39
2024/01/01 10:16:38;;;;;;;23.50;16.90;;;;;;;4.99;72.73;98706.90;107263;1257;60434;-39
2024/01/01 10:19:06;;;;;;;;;;;;;;;4.99;72.71;98699.92;107281;1257;60464;-39
2024/01/01 10:21:35;;;;;;;26.50;17.10;;;;;;;4.97;72.62;98683.68;107330;1255;73925;-40
2024/01/01 10:24:24;;;;;;;25.30;16.80;;;;;;;4.94;72.64;98677.68;107303;1257;66579;-39
2024/01/01 10:27:00;;;;;;;25.60;17.30;;;;;;;4.93;72.66;98685.11;107282;1259;73003;-39
2024/01/01 10:29:28;;;;;;;23.20;16.70;;;;;;;4.96;72.59;98686.86;107351;1260;60897;-39
2024/01/01 10:31:56;;;;;;;22.50;15.90;;;;;;;4.98;72.62;98678.58;107298;1257;60432;-40
2024/01/01 10:34:24;;;;;;;25.40;17.30;;;;;;;4.97;72.71;98672.95;107071;1257;73883;-40
2024/01/01 10:36:51;;;;;;;28.00;17.50;;;;;;;4.95;72.90;98668.19;107294;1257;67576;-40
2024/01/01 10:39:19;;;;;;;26.70;18.10;;;;;;;4.95;73.08;98656.05;107275;1257;72687;-39
2024/01/01 10:41:47;;;;;;;25.60;17.60;;;;;;;4.93;73.12;98647.50;107232;1257;60441;-39
2024/01/01 10:44:14;;;;;;;28.40;16.90;;;;;;;4.93;73.10;98646.34;107243;1261;60497;-39
2024/01/01 10:46:46;;;;;;;22.60;16.50;;;;;;;4.99;73.08;98637.67;107234;1256;73853;-40
2024/01/01 10:49:22;;;;;;;25.80;16.20;;;;;;;5.08;72.94;98645.94;107333;1259;67635;-39
2024/01/01 10:52:16;;;;;;;24.00;17.10;;;;;;;5.11;73.05;98647.19;107243;1260;71561;-39
2024/01/01 10:54:55;;;;;;;25.20;17.60;;;;;;;5.11;72.90;98633.52;107243;1260;60394;-39
2024/01/01 10:57:49;;;;;;;25.30;18.50;;;;;;;5.15;73.03;98630.40;107296;1257;60380;-39
2024/01/01 11:00:47;;;;;;;27.90;18.40;;;;;;;5.19;72.91;98623.45;107293;1256;73851;-40
2024/01/01 11:03:15;;;;;;;27.30;18.30;;;;;;;5.20;72.61;98627.63;107352;1257;66374;-39
2024/01/01 11:05:44;;;;;;;26.00;17.20;;;;;;;5.17;72.27;98618.70;107242;1257;71388;-39
2024/01/01 11:08:12;;;;;;;24.30;16.60;;;;;;;5.18;72.36;98607.15;107250;1258;60466;-39
2024/01/01 11:10:49;;;;;;;23.00;17.50;;;;;;;5.22;72.18;98603.27;107317;1257;60299;-39
2024/01/01 11:13:25;;;;;;;26.40;17.40;;;;;;;5.21;72.28;98598.41;107328;1257;73922;-39
2024/01/01 11:16:03;;;;;;;23.70;17.10;;;;;;;5.16;72.35;98597.64;106520;1257;1002584;-39
2024/01/01 11:18:32;;;;;;;24.70;17.40;;;;;;;5.11;72.19;98593.05;107304;1257;71248;-39
2024/01/01 11:21:06;;;;;;;27.60;19.10;;;;;;;5.05;72.27;98586.06;107379;1258;60450;-39
2024/01/01 11:23:41;;;;;;;25.30;17.70;;;;;;;4.97;72.39;98574.70;107264;1257;60435;-39